Station History

Weather Underground - logo

Station Historical Data
Daily Summary for February 3, 2018 Units:  Both    English   Metric
« Previous Day
Next Day »
Daily Weekly Monthly Yearly Custom
  High: Low: Average:
Temperature: 72.9 °F /  22.7 °C 41.0 °F /  5 °C 55.6 °F /  13.1 °C
Dew Point: 53.8 °F /  12.1 °C 39.4 °F /  4.1 °C 48 °F /  8.9 °C
Humidity: 96 % 47 % 78 %
Wind Speed: 3.5 mph /  5.6 km/h - 0.4 mph /  0.6 km/h
Wind Gust: 3.5 mph /  5.6 km/h - -
Wind:- - West
Pressure: 30.23 in /  1023.6 hPa 30.08 in /  1018.5 hPa -
Precipitation: 0.01 in /  0.25 mm    
Historical Graphs
 
 
Tabular Data for February 3, 2018
Time Temperature Dew Point Pressure Wind Wind Speed Wind Gust Humidity Rainfall Rate (Hourly)
00:01 48.1 °F /  8.9 °C 45.9 °F /  7.7 °C 30.17 in /  1021.6 hPa Calm     92 % 0.00 in /  0 mm
00:06 48.2 °F /  9 °C 46.0 °F /  7.8 °C 30.17 in /  1021.6 hPa Calm     92 % 0.00 in /  0 mm
00:11 48.2 °F /  9 °C 46.0 °F /  7.8 °C 30.17 in /  1021.6 hPa North 1.2 mph /  1.9 km/h 1.2 mph /  1.9 km/h 92 % 0.00 in /  0 mm
00:16 48.1 °F /  8.9 °C 45.6 °F /  7.6 °C 30.17 in /  1021.6 hPa Calm     91 % 0.00 in /  0 mm
00:21 48.1 °F /  8.9 °C 45.6 °F /  7.6 °C 30.17 in /  1021.6 hPa Calm     91 % 0.00 in /  0 mm
00:26 48.2 °F /  9 °C 46.0 °F /  7.8 °C 30.17 in /  1021.6 hPa Calm     92 % 0.00 in /  0 mm
00:31 48.1 °F /  8.9 °C 45.9 °F /  7.7 °C 30.17 in /  1021.6 hPa Calm     92 % 0.00 in /  0 mm
00:36 47.9 °F /  8.8 °C 45.7 °F /  7.6 °C 30.17 in /  1021.6 hPa Calm     92 % 0.00 in /  0 mm
00:41 47.9 °F /  8.8 °C 45.7 °F /  7.6 °C 30.17 in /  1021.6 hPa North 1.2 mph /  1.9 km/h 1.2 mph /  1.9 km/h 92 % 0.00 in /  0 mm
00:46 47.9 °F /  8.8 °C 45.7 °F /  7.6 °C 30.16 in /  1021.2 hPa Calm     92 % 0.00 in /  0 mm
00:51 47.8 °F /  8.8 °C 45.6 °F /  7.6 °C 30.16 in /  1021.2 hPa Calm     92 % 0.00 in /  0 mm
00:56 47.3 °F /  8.5 °C 44.5 °F /  6.9 °C 30.16 in /  1021.2 hPa Calm     90 % 0.00 in /  0 mm
01:01 46.9 °F /  8.3 °C 44.4 °F /  6.9 °C 30.16 in /  1021.2 hPa Calm     91 % 0.00 in /  0 mm
01:06 46.6 °F /  8.1 °C 43.8 °F /  6.6 °C 30.16 in /  1021.2 hPa Calm     90 % 0.00 in /  0 mm
01:11 46.3 °F /  7.9 °C 43.8 °F /  6.6 °C 30.16 in /  1021.2 hPa Calm     91 % 0.00 in /  0 mm
01:16 46.0 °F /  7.8 °C 43.5 °F /  6.4 °C 30.16 in /  1021.2 hPa Calm     91 % 0.00 in /  0 mm
01:21 45.9 °F /  7.7 °C 43.4 °F /  6.3 °C 30.16 in /  1021.2 hPa Calm     91 % 0.00 in /  0 mm
01:26 45.3 °F /  7.4 °C 42.5 °F /  5.8 °C 30.16 in /  1021.2 hPa Calm     90 % 0.00 in /  0 mm
01:31 44.9 °F /  7.2 °C 42.4 °F /  5.8 °C 30.16 in /  1021.2 hPa Calm     91 % 0.00 in /  0 mm
01:36 44.8 °F /  7.1 °C 42.3 °F /  5.7 °C 30.16 in /  1021.2 hPa Calm     91 % 0.00 in /  0 mm
01:41 44.6 °F /  7 °C 42.4 °F /  5.8 °C 30.16 in /  1021.2 hPa Calm     92 % 0.00 in /  0 mm
01:46 44.4 °F /  6.9 °C 42.2 °F /  5.7 °C 30.16 in /  1021.2 hPa Calm     92 % 0.00 in /  0 mm
01:51 44.3 °F /  6.8 °C 42.1 °F /  5.6 °C 30.16 in /  1021.2 hPa Calm     92 % 0.00 in /  0 mm
01:56 44.3 °F /  6.8 °C 42.1 °F /  5.6 °C 30.16 in /  1021.2 hPa Calm     92 % 0.00 in /  0 mm
02:01 44.1 °F /  6.7 °C 42.2 °F /  5.7 °C 30.16 in /  1021.2 hPa Calm     93 % 0.00 in /  0 mm
02:06 44.0 °F /  6.7 °C 42.1 °F /  5.6 °C 30.16 in /  1021.2 hPa Calm     93 % 0.00 in /  0 mm
02:11 43.9 °F /  6.6 °C 42.0 °F /  5.6 °C 30.16 in /  1021.2 hPa Calm     93 % 0.00 in /  0 mm
02:16 43.8 °F /  6.6 °C 41.9 °F /  5.5 °C 30.16 in /  1021.2 hPa Calm     93 % 0.00 in /  0 mm
02:21 43.7 °F /  6.5 °C 41.8 °F /  5.4 °C 30.16 in /  1021.2 hPa Calm     93 % 0.00 in /  0 mm
02:26 43.9 °F /  6.6 °C 42.3 °F /  5.7 °C 30.16 in /  1021.2 hPa Calm     94 % 0.00 in /  0 mm
02:31 44.1 °F /  6.7 °C 42.5 °F /  5.8 °C 30.16 in /  1021.2 hPa Calm     94 % 0.00 in /  0 mm
02:36 44.3 °F /  6.8 °C 42.7 °F /  5.9 °C 30.16 in /  1021.2 hPa Calm     94 % 0.00 in /  0 mm
02:41 44.4 °F /  6.9 °C 42.8 °F /  6 °C 30.16 in /  1021.2 hPa Calm     94 % 0.00 in /  0 mm
02:46 44.7 °F /  7.1 °C 43.1 °F /  6.2 °C 30.16 in /  1021.2 hPa Calm     94 % 0.00 in /  0 mm
02:51 44.2 °F /  6.8 °C 42.3 °F /  5.7 °C 30.16 in /  1021.2 hPa Calm     93 % 0.00 in /  0 mm
02:56 44.1 °F /  6.7 °C 42.5 °F /  5.8 °C 30.16 in /  1021.2 hPa Calm     94 % 0.00 in /  0 mm
03:01 44.0 °F /  6.7 °C 42.1 °F /  5.6 °C 30.16 in /  1021.2 hPa Calm     93 % 0.00 in /  0 mm
03:06 44.0 °F /  6.7 °C 42.4 °F /  5.8 °C 30.16 in /  1021.2 hPa Calm     94 % 0.00 in /  0 mm
03:11 44.4 °F /  6.9 °C 42.8 °F /  6 °C 30.16 in /  1021.2 hPa Calm     94 % 0.00 in /  0 mm
03:16 44.7 °F /  7.1 °C 43.4 °F /  6.3 °C 30.16 in /  1021.2 hPa Calm     95 % 0.00 in /  0 mm
03:21 44.9 °F /  7.2 °C 43.6 °F /  6.4 °C 30.16 in /  1021.2 hPa NE 1.0 mph /  1.6 km/h   95 % 0.00 in /  0 mm
03:26 45.2 °F /  7.3 °C 43.9 °F /  6.6 °C 30.16 in /  1021.2 hPa Calm     95 % 0.00 in /  0 mm
03:31 45.2 °F /  7.3 °C 43.6 °F /  6.4 °C 30.16 in /  1021.2 hPa Calm     94 % 0.00 in /  0 mm
03:36 45.3 °F /  7.4 °C 43.7 °F /  6.5 °C 30.16 in /  1021.2 hPa Calm     94 % 0.00 in /  0 mm
03:41 45.5 °F /  7.5 °C 43.9 °F /  6.6 °C 30.16 in /  1021.2 hPa Calm     94 % 0.00 in /  0 mm
03:46 45.7 °F /  7.6 °C 44.1 °F /  6.7 °C 30.16 in /  1021.2 hPa Calm     94 % 0.00 in /  0 mm
03:52 45.9 °F /  7.7 °C 44.3 °F /  6.8 °C 30.16 in /  1021.2 hPa Calm     94 % 0.00 in /  0 mm
03:57 46.0 °F /  7.8 °C 44.4 °F /  6.9 °C 30.16 in /  1021.2 hPa Calm     94 % 0.00 in /  0 mm
04:02 46.5 °F /  8.1 °C 45.1 °F /  7.3 °C 30.16 in /  1021.2 hPa Calm     95 % 0.00 in /  0 mm
04:07 46.7 °F /  8.2 °C 45.1 °F /  7.3 °C 30.16 in /  1021.2 hPa Calm     94 % 0.00 in /  0 mm
04:12 46.2 °F /  7.9 °C 44.3 °F /  6.8 °C 30.16 in /  1021.2 hPa Calm     93 % 0.00 in /  0 mm
04:17 45.5 °F /  7.5 °C 43.3 °F /  6.3 °C 30.16 in /  1021.2 hPa Calm     92 % 0.00 in /  0 mm
04:22 44.9 °F /  7.2 °C 42.7 °F /  5.9 °C 30.16 in /  1021.2 hPa Calm     92 % 0.00 in /  0 mm
04:27 44.6 °F /  7 °C 42.7 °F /  5.9 °C 30.16 in /  1021.2 hPa Calm     93 % 0.00 in /  0 mm
04:32 44.1 °F /  6.7 °C 41.9 °F /  5.5 °C 30.16 in /  1021.2 hPa Calm     92 % 0.00 in /  0 mm
04:37 43.8 °F /  6.6 °C 41.9 °F /  5.5 °C 30.16 in /  1021.2 hPa Calm     93 % 0.00 in /  0 mm
04:42 43.6 °F /  6.4 °C 41.7 °F /  5.4 °C 30.16 in /  1021.2 hPa Calm     93 % 0.00 in /  0 mm
04:47 43.6 °F /  6.4 °C 41.7 °F /  5.4 °C 30.16 in /  1021.2 hPa Calm     93 % 0.00 in /  0 mm
04:52 43.5 °F /  6.4 °C 41.9 °F /  5.5 °C 30.16 in /  1021.2 hPa Calm     94 % 0.00 in /  0 mm
04:57 43.4 °F /  6.3 °C 41.8 °F /  5.4 °C 30.16 in /  1021.2 hPa Calm     94 % 0.00 in /  0 mm
05:02 43.1 °F /  6.2 °C 41.2 °F /  5.1 °C 30.16 in /  1021.2 hPa Calm     93 % 0.00 in /  0 mm
05:07 42.9 °F /  6.1 °C 41.3 °F /  5.2 °C 30.17 in /  1021.6 hPa Calm     94 % 0.00 in /  0 mm
05:12 42.9 °F /  6.1 °C 41.3 °F /  5.2 °C 30.17 in /  1021.6 hPa Calm     94 % 0.00 in /  0 mm
05:17 42.9 °F /  6.1 °C 41.3 °F /  5.2 °C 30.17 in /  1021.6 hPa Calm     94 % 0.00 in /  0 mm
05:22 42.5 °F /  5.8 °C 40.6 °F /  4.8 °C 30.17 in /  1021.6 hPa Calm     93 % 0.00 in /  0 mm
05:27 42.3 °F /  5.7 °C 40.4 °F /  4.7 °C 30.17 in /  1021.6 hPa Calm     93 % 0.00 in /  0 mm
05:32 42.2 °F /  5.7 °C 40.3 °F /  4.6 °C 30.18 in /  1021.9 hPa Calm     93 % 0.00 in /  0 mm
05:37 42.5 °F /  5.8 °C 40.9 °F /  4.9 °C 30.18 in /  1021.9 hPa Calm     94 % 0.00 in /  0 mm
05:42 42.8 °F /  6 °C 41.2 °F /  5.1 °C 30.18 in /  1021.9 hPa Calm     94 % 0.00 in /  0 mm
05:47 42.5 °F /  5.8 °C 40.6 °F /  4.8 °C 30.18 in /  1021.9 hPa Calm     93 % 0.00 in /  0 mm
05:52 42.4 °F /  5.8 °C 40.8 °F /  4.9 °C 30.18 in /  1021.9 hPa Calm     94 % 0.00 in /  0 mm
05:57 42.5 °F /  5.8 °C 40.9 °F /  4.9 °C 30.18 in /  1021.9 hPa Calm     94 % 0.00 in /  0 mm
06:02 42.1 °F /  5.6 °C 40.2 °F /  4.6 °C 30.18 in /  1021.9 hPa Calm     93 % 0.00 in /  0 mm
06:07 42.2 °F /  5.7 °C 40.6 °F /  4.8 °C 30.18 in /  1021.9 hPa Calm     94 % 0.00 in /  0 mm
06:12 42.0 °F /  5.6 °C 40.1 °F /  4.5 °C 30.18 in /  1021.9 hPa Calm     93 % 0.00 in /  0 mm
06:17 41.9 °F /  5.5 °C 40.3 °F /  4.6 °C 30.18 in /  1021.9 hPa Calm     94 % 0.00 in /  0 mm
06:22 41.9 °F /  5.5 °C 40.3 °F /  4.6 °C 30.18 in /  1021.9 hPa Calm     94 % 0.00 in /  0 mm
06:27 41.6 °F /  5.3 °C 39.7 °F /  4.3 °C 30.18 in /  1021.9 hPa Calm     93 % 0.00 in /  0 mm
06:32 41.4 °F /  5.2 °C 39.8 °F /  4.3 °C 30.19 in /  1022.2 hPa Calm     94 % 0.00 in /  0 mm
06:37 41.3 °F /  5.2 °C 39.7 °F /  4.3 °C 30.19 in /  1022.2 hPa Calm     94 % 0.00 in /  0 mm
06:42 41.5 °F /  5.3 °C 39.9 °F /  4.4 °C 30.19 in /  1022.2 hPa Calm     94 % 0.00 in /  0 mm
06:47 41.6 °F /  5.3 °C 40.0 °F /  4.4 °C 30.19 in /  1022.2 hPa Calm     94 % 0.00 in /  0 mm
06:52 41.6 °F /  5.3 °C 40.0 °F /  4.4 °C 30.20 in /  1022.6 hPa Calm     94 % 0.00 in /  0 mm
06:57 41.5 °F /  5.3 °C 39.9 °F /  4.4 °C 30.20 in /  1022.6 hPa Calm     94 % 0.00 in /  0 mm
07:02 41.3 °F /  5.2 °C 39.7 °F /  4.3 °C 30.20 in /  1022.6 hPa Calm     94 % 0.00 in /  0 mm
07:07 41.2 °F /  5.1 °C 39.6 °F /  4.2 °C 30.20 in /  1022.6 hPa Calm     94 % 0.00 in /  0 mm
07:12 41.1 °F /  5.1 °C 39.5 °F /  4.2 °C 30.20 in /  1022.6 hPa Calm     94 % 0.00 in /  0 mm
07:17 41.0 °F /  5 °C 39.4 °F /  4.1 °C 30.20 in /  1022.6 hPa Calm     94 % 0.00 in /  0 mm
07:22 41.1 °F /  5.1 °C 39.5 °F /  4.2 °C 30.20 in /  1022.6 hPa Calm     94 % 0.00 in /  0 mm
07:27 41.9 °F /  5.5 °C 40.6 °F /  4.8 °C 30.20 in /  1022.6 hPa Calm     95 % 0.00 in /  0 mm
07:32 42.3 °F /  5.7 °C 41.0 °F /  5 °C 30.20 in /  1022.6 hPa Calm     95 % 0.00 in /  0 mm
07:37 42.5 °F /  5.8 °C 41.2 °F /  5.1 °C 30.20 in /  1022.6 hPa Calm     95 % 0.00 in /  0 mm
07:42 42.7 °F /  5.9 °C 41.4 °F /  5.2 °C 30.21 in /  1022.9 hPa Calm     95 % 0.00 in /  0 mm
07:47 42.7 °F /  5.9 °C 41.4 °F /  5.2 °C 30.21 in /  1022.9 hPa Calm     95 % 0.00 in /  0 mm
07:52 43.1 °F /  6.2 °C 41.8 °F /  5.4 °C 30.21 in /  1022.9 hPa Calm     95 % 0.00 in /  0 mm
07:57 43.9 °F /  6.6 °C 42.6 °F /  5.9 °C 30.21 in /  1022.9 hPa Calm     95 % 0.00 in /  0 mm
08:02 44.9 °F /  7.2 °C 43.8 °F /  6.6 °C 30.21 in /  1022.9 hPa Calm     96 % 0.00 in /  0 mm
08:07 46.0 °F /  7.8 °C 44.9 °F /  7.2 °C 30.21 in /  1022.9 hPa Calm     96 % 0.00 in /  0 mm
08:12 47.3 °F /  8.5 °C 46.2 °F /  7.9 °C 30.21 in /  1022.9 hPa Calm     96 % 0.00 in /  0 mm
08:17 48.3 °F /  9.1 °C 47.2 °F /  8.4 °C 30.21 in /  1022.9 hPa Calm     96 % 0.00 in /  0 mm
08:22 49.5 °F /  9.7 °C 47.6 °F /  8.7 °C 30.21 in /  1022.9 hPa Calm     93 % 0.00 in /  0 mm
08:27 50.4 °F /  10.2 °C 47.6 °F /  8.7 °C 30.21 in /  1022.9 hPa Calm     90 % 0.00 in /  0 mm
08:32 51.2 °F /  10.7 °C 48.1 °F /  8.9 °C 30.21 in /  1022.9 hPa Calm   0.1 mph /  0.2 km/h 89 % 0.00 in /  0 mm
08:37 51.9 °F /  11.1 °C 48.5 °F /  9.2 °C 30.22 in /  1023.2 hPa Calm     88 % 0.00 in /  0 mm
08:42 52.4 °F /  11.3 °C 48.9 °F /  9.4 °C 30.21 in /  1022.9 hPa ESE 1.2 mph /  1.9 km/h 1.2 mph /  1.9 km/h 88 % 0.01 in /  0.25 mm
08:47 52.8 °F /  11.6 °C 49.3 °F /  9.6 °C 30.21 in /  1022.9 hPa SSE 1.2 mph /  1.9 km/h   88 % 0.01 in /  0.25 mm
08:52 53.4 °F /  11.9 °C 49.6 °F /  9.8 °C 30.21 in /  1022.9 hPa Calm     87 % 0.01 in /  0.25 mm
08:57 54.1 °F /  12.3 °C 50.3 °F /  10.2 °C 30.21 in /  1022.9 hPa SE 1.2 mph /  1.9 km/h 1.2 mph /  1.9 km/h 87 % 0.01 in /  0.25 mm
09:02 54.6 °F /  12.6 °C 50.5 °F /  10.3 °C 30.22 in /  1023.2 hPa Calm   0.1 mph /  0.2 km/h 86 % 0.01 in /  0.25 mm
09:07 55.2 °F /  12.9 °C 51.1 °F /  10.6 °C 30.22 in /  1023.2 hPa Calm     86 % 0.01 in /  0.25 mm
09:12 55.8 °F /  13.2 °C 51.4 °F /  10.8 °C 30.22 in /  1023.2 hPa ESE 1.2 mph /  1.9 km/h   85 % 0.01 in /  0.25 mm
09:17 56.4 °F /  13.6 °C 51.6 °F /  10.9 °C 30.22 in /  1023.2 hPa Calm     84 % 0.01 in /  0.25 mm
09:22 57.0 °F /  13.9 °C 51.9 °F /  11.1 °C 30.23 in /  1023.6 hPa Calm     83 % 0.01 in /  0.25 mm
09:27 57.7 °F /  14.3 °C 52.2 °F /  11.2 °C 30.23 in /  1023.6 hPa Calm     82 % 0.01 in /  0.25 mm
09:32 58.3 °F /  14.6 °C 52.2 °F /  11.2 °C 30.23 in /  1023.6 hPa South 1.2 mph /  1.9 km/h 1.2 mph /  1.9 km/h 80 % 0.01 in /  0.25 mm
09:37 58.5 °F /  14.7 °C 52.0 °F /  11.1 °C 30.23 in /  1023.6 hPa Calm     79 % 0.01 in /  0.25 mm
09:42 58.9 °F /  14.9 °C 52.4 °F /  11.3 °C 30.22 in /  1023.2 hPa Calm     79 % 0.00 in /  0 mm
09:47 59.6 °F /  15.3 °C 52.7 °F /  11.5 °C 30.22 in /  1023.2 hPa South 1.2 mph /  1.9 km/h   78 % 0.00 in /  0 mm
09:52 59.9 °F /  15.5 °C 52.7 °F /  11.5 °C 30.22 in /  1023.2 hPa Calm     77 % 0.00 in /  0 mm
09:57 60.2 °F /  15.7 °C 53.0 °F /  11.7 °C 30.23 in /  1023.6 hPa Calm     77 % 0.00 in /  0 mm
10:02 61.1 °F /  16.2 °C 53.1 °F /  11.7 °C 30.23 in /  1023.6 hPa SSE 1.2 mph /  1.9 km/h   75 % 0.00 in /  0 mm
10:07 61.4 °F /  16.3 °C 52.7 °F /  11.5 °C 30.23 in /  1023.6 hPa SSE 2.3 mph /  3.7 km/h   73 % 0.00 in /  0 mm
10:12 61.7 °F /  16.5 °C 52.6 °F /  11.4 °C 30.23 in /  1023.6 hPa SE 2.0 mph /  3.2 km/h 2.0 mph /  3.2 km/h 72 % 0.00 in /  0 mm
10:17 62.1 °F /  16.7 °C 52.6 °F /  11.4 °C 30.23 in /  1023.6 hPa ENE 2.3 mph /  3.7 km/h   71 % 0.00 in /  0 mm
10:22 62.5 °F /  16.9 °C 52.6 °F /  11.4 °C 30.23 in /  1023.6 hPa SSE 2.3 mph /  3.7 km/h 2.3 mph /  3.7 km/h 70 % 0.00 in /  0 mm
10:27 63.0 °F /  17.2 °C 52.7 °F /  11.5 °C 30.23 in /  1023.6 hPa Calm   0.2 mph /  0.3 km/h 69 % 0.00 in /  0 mm
10:32 63.5 °F /  17.5 °C 53.1 °F /  11.7 °C 30.23 in /  1023.6 hPa ESE 1.2 mph /  1.9 km/h 1.2 mph /  1.9 km/h 69 % 0.00 in /  0 mm
10:37 63.7 °F /  17.6 °C 52.9 °F /  11.6 °C 30.22 in /  1023.2 hPa Calm     68 % 0.00 in /  0 mm
10:42 63.4 °F /  17.4 °C 52.2 °F /  11.2 °C 30.22 in /  1023.2 hPa Calm     67 % 0.00 in /  0 mm
10:47 63.8 °F /  17.7 °C 52.6 °F /  11.4 °C 30.22 in /  1023.2 hPa SE 1.2 mph /  1.9 km/h   67 % 0.00 in /  0 mm
10:52 64.1 °F /  17.8 °C 52.5 °F /  11.4 °C 30.22 in /  1023.2 hPa NW 1.2 mph /  1.9 km/h 1.2 mph /  1.9 km/h 66 % 0.00 in /  0 mm
10:57 64.0 °F /  17.8 °C 52.4 °F /  11.3 °C 30.22 in /  1023.2 hPa North 1.2 mph /  1.9 km/h 1.2 mph /  1.9 km/h 66 % 0.00 in /  0 mm
11:02 64.2 °F /  17.9 °C 52.6 °F /  11.4 °C 30.21 in /  1022.9 hPa Calm     66 % 0.00 in /  0 mm
11:07 64.4 °F /  18 °C 51.5 °F /  10.8 °C 30.21 in /  1022.9 hPa NW 3.5 mph /  5.6 km/h 3.5 mph /  5.6 km/h 63 % 0.00 in /  0 mm
11:12 64.9 °F /  18.3 °C 52.4 °F /  11.3 °C 30.21 in /  1022.9 hPa NNW 2.3 mph /  3.7 km/h 2.3 mph /  3.7 km/h 64 % 0.00 in /  0 mm
11:18 65.2 °F /  18.4 °C 52.7 °F /  11.5 °C 30.21 in /  1022.9 hPa SE 1.2 mph /  1.9 km/h 1.2 mph /  1.9 km/h 64 % 0.00 in /  0 mm
11:23 65.6 °F /  18.7 °C 53.5 °F /  11.9 °C 30.20 in /  1022.6 hPa West 1.2 mph /  1.9 km/h 1.2 mph /  1.9 km/h 65 % 0.00 in /  0 mm
11:28 65.7 °F /  18.7 °C 53.2 °F /  11.8 °C 30.20 in /  1022.6 hPa NW 3.5 mph /  5.6 km/h 3.5 mph /  5.6 km/h 64 % 0.00 in /  0 mm
11:33 65.7 °F /  18.7 °C 52.8 °F /  11.6 °C 30.20 in /  1022.6 hPa NW 1.2 mph /  1.9 km/h 1.2 mph /  1.9 km/h 63 % 0.00 in /  0 mm
11:38 66.4 °F /  19.1 °C 53.8 °F /  12.1 °C 30.20 in /  1022.6 hPa Calm   0.2 mph /  0.3 km/h 64 % 0.00 in /  0 mm
11:43 66.7 °F /  19.3 °C 52.8 °F /  11.6 °C 30.19 in /  1022.2 hPa NW 1.2 mph /  1.9 km/h   61 % 0.00 in /  0 mm
11:48 66.9 °F /  19.4 °C 53.0 °F /  11.7 °C 30.19 in /  1022.2 hPa West 1.2 mph /  1.9 km/h 1.2 mph /  1.9 km/h 61 % 0.00 in /  0 mm
11:53 67.0 °F /  19.4 °C 52.7 °F /  11.5 °C 30.19 in /  1022.2 hPa NW 1.2 mph /  1.9 km/h 1.2 mph /  1.9 km/h 60 % 0.00 in /  0 mm
11:58 66.9 °F /  19.4 °C 53.0 °F /  11.7 °C 30.18 in /  1021.9 hPa WNW 2.3 mph /  3.7 km/h 2.3 mph /  3.7 km/h 61 % 0.00 in /  0 mm
12:03 67.0 °F /  19.4 °C 52.7 °F /  11.5 °C 30.18 in /  1021.9 hPa WNW 1.2 mph /  1.9 km/h 1.2 mph /  1.9 km/h 60 % 0.00 in /  0 mm
12:08 67.2 °F /  19.6 °C 52.8 °F /  11.6 °C 30.17 in /  1021.6 hPa NW 1.2 mph /  1.9 km/h 1.2 mph /  1.9 km/h 60 % 0.00 in /  0 mm
12:13 67.4 °F /  19.7 °C 53.0 °F /  11.7 °C 30.17 in /  1021.6 hPa Calm     60 % 0.00 in /  0 mm
12:18 67.5 °F /  19.7 °C 52.7 °F /  11.5 °C 30.17 in /  1021.6 hPa Calm     59 % 0.00 in /  0 mm
12:23 67.9 °F /  19.9 °C 53.0 °F /  11.7 °C 30.17 in /  1021.6 hPa West 1.2 mph /  1.9 km/h   59 % 0.00 in /  0 mm
12:28 68.5 °F /  20.3 °C 53.6 °F /  12 °C 30.16 in /  1021.2 hPa Calm     59 % 0.00 in /  0 mm
12:33 68.9 °F /  20.5 °C 53.5 °F /  11.9 °C 30.16 in /  1021.2 hPa NW 2.3 mph /  3.7 km/h 2.3 mph /  3.7 km/h 58 % 0.00 in /  0 mm
12:38 69.2 °F /  20.7 °C 51.3 °F /  10.7 °C 30.16 in /  1021.2 hPa NW 1.2 mph /  1.9 km/h 1.2 mph /  1.9 km/h 53 % 0.00 in /  0 mm
12:43 69.0 °F /  20.6 °C 52.2 °F /  11.2 °C 30.15 in /  1020.9 hPa WNW 1.2 mph /  1.9 km/h 1.2 mph /  1.9 km/h 55 % 0.00 in /  0 mm
12:48 69.3 °F /  20.7 °C 52.4 °F /  11.3 °C 30.14 in /  1020.5 hPa Calm     55 % 0.00 in /  0 mm
12:53 69.8 °F /  21 °C 51.4 °F /  10.8 °C 30.14 in /  1020.5 hPa NW 2.3 mph /  3.7 km/h 2.3 mph /  3.7 km/h 52 % 0.00 in /  0 mm
12:58 69.6 °F /  20.9 °C 51.2 °F /  10.7 °C 30.14 in /  1020.5 hPa Calm     52 % 0.00 in /  0 mm
13:03 70.1 °F /  21.2 °C 52.7 °F /  11.5 °C 30.14 in /  1020.5 hPa Calm   0.1 mph /  0.2 km/h 54 % 0.00 in /  0 mm
13:08 70.9 °F /  21.6 °C 52.9 °F /  11.6 °C 30.13 in /  1020.2 hPa NW 1.2 mph /  1.9 km/h 1.2 mph /  1.9 km/h 53 % 0.00 in /  0 mm
13:13 70.9 °F /  21.6 °C 52.9 °F /  11.6 °C 30.13 in /  1020.2 hPa NW 3.5 mph /  5.6 km/h 3.5 mph /  5.6 km/h 53 % 0.00 in /  0 mm
13:18 70.6 °F /  21.4 °C 52.6 °F /  11.4 °C 30.13 in /  1020.2 hPa NW 2.3 mph /  3.7 km/h 2.3 mph /  3.7 km/h 53 % 0.00 in /  0 mm
13:23 70.6 °F /  21.4 °C 52.6 °F /  11.4 °C 30.13 in /  1020.2 hPa NW 1.2 mph /  1.9 km/h 1.2 mph /  1.9 km/h 53 % 0.00 in /  0 mm
13:28 70.9 °F /  21.6 °C 53.4 °F /  11.9 °C 30.12 in /  1019.9 hPa Calm     54 % 0.00 in /  0 mm
13:33 71.1 °F /  21.7 °C 52.6 °F /  11.4 °C 30.12 in /  1019.9 hPa WNW 1.2 mph /  1.9 km/h 1.2 mph /  1.9 km/h 52 % 0.00 in /  0 mm
13:38 71.1 °F /  21.7 °C 52.0 °F /  11.1 °C 30.12 in /  1019.9 hPa West 1.2 mph /  1.9 km/h 1.2 mph /  1.9 km/h 51 % 0.00 in /  0 mm
13:43 71.2 °F /  21.8 °C 51.1 °F /  10.6 °C 30.11 in /  1019.5 hPa West 1.2 mph /  1.9 km/h   49 % 0.00 in /  0 mm
13:48 71.5 °F /  21.9 °C 51.9 °F /  11.1 °C 30.11 in /  1019.5 hPa NW 3.5 mph /  5.6 km/h 3.5 mph /  5.6 km/h 50 % 0.00 in /  0 mm
13:53 71.5 °F /  21.9 °C 50.8 °F /  10.4 °C 30.11 in /  1019.5 hPa NW 1.2 mph /  1.9 km/h   48 % 0.00 in /  0 mm
13:58 71.6 °F /  22 °C 50.9 °F /  10.5 °C 30.11 in /  1019.5 hPa NW 1.2 mph /  1.9 km/h 1.2 mph /  1.9 km/h 48 % 0.00 in /  0 mm
14:03 71.8 °F /  22.1 °C 51.0 °F /  10.6 °C 30.11 in /  1019.5 hPa West 2.3 mph /  3.7 km/h 2.3 mph /  3.7 km/h 48 % 0.00 in /  0 mm
14:08 72.0 °F /  22.2 °C 51.8 °F /  11 °C 30.10 in /  1019.2 hPa West 3.5 mph /  5.6 km/h 3.5 mph /  5.6 km/h 49 % 0.00 in /  0 mm
14:13 72.0 °F /  22.2 °C 51.8 °F /  11 °C 30.10 in /  1019.2 hPa NW 1.2 mph /  1.9 km/h 1.2 mph /  1.9 km/h 49 % 0.00 in /  0 mm
14:18 72.0 °F /  22.2 °C 51.2 °F /  10.7 °C 30.11 in /  1019.5 hPa Calm     48 % 0.00 in /  0 mm
14:23 72.2 °F /  22.3 °C 52.0 °F /  11.1 °C 30.11 in /  1019.5 hPa WNW 2.0 mph /  3.2 km/h 2.0 mph /  3.2 km/h 49 % 0.00 in /  0 mm
14:28 72.3 °F /  22.4 °C 51.5 °F /  10.8 °C 30.11 in /  1019.5 hPa Calm     48 % 0.00 in /  0 mm
14:35 72.4 °F /  22.4 °C 51.6 °F /  10.9 °C 30.10 in /  1019.2 hPa WNW 2.3 mph /  3.7 km/h 2.3 mph /  3.7 km/h 48 % 0.00 in /  0 mm
14:40 72.5 °F /  22.5 °C 52.2 °F /  11.2 °C 30.10 in /  1019.2 hPa NW 1.2 mph /  1.9 km/h 1.2 mph /  1.9 km/h 49 % 0.00 in /  0 mm
14:45 72.8 °F /  22.7 °C 51.4 °F /  10.8 °C 30.10 in /  1019.2 hPa WNW 2.3 mph /  3.7 km/h 2.3 mph /  3.7 km/h 47 % 0.00 in /  0 mm
14:50 72.8 °F /  22.7 °C 52.0 °F /  11.1 °C 30.10 in /  1019.2 hPa Calm   0.2 mph /  0.3 km/h 48 % 0.00 in /  0 mm
14:55 72.9 °F /  22.7 °C 52.1 °F /  11.2 °C 30.10 in /  1019.2 hPa NNW 1.2 mph /  1.9 km/h 1.2 mph /  1.9 km/h 48 % 0.00 in /  0 mm
15:00 72.7 °F /  22.6 °C 51.9 °F /  11.1 °C 30.09 in /  1018.8 hPa NW 2.3 mph /  3.7 km/h 2.3 mph /  3.7 km/h 48 % 0.00 in /  0 mm
15:05 72.6 °F /  22.6 °C 51.8 °F /  11 °C 30.09 in /  1018.8 hPa NW 2.3 mph /  3.7 km/h 2.3 mph /  3.7 km/h 48 % 0.00 in /  0 mm
15:10 72.5 °F /  22.5 °C 52.2 °F /  11.2 °C 30.09 in /  1018.8 hPa WNW 1.2 mph /  1.9 km/h 1.2 mph /  1.9 km/h 49 % 0.00 in /  0 mm
15:15 72.4 °F /  22.4 °C 51.6 °F /  10.9 °C 30.09 in /  1018.8 hPa WNW 1.2 mph /  1.9 km/h 1.2 mph /  1.9 km/h 48 % 0.00 in /  0 mm
15:20 72.4 °F /  22.4 °C 52.2 °F /  11.2 °C 30.09 in /  1018.8 hPa WNW 1.2 mph /  1.9 km/h 1.2 mph /  1.9 km/h 49 % 0.00 in /  0 mm
15:25 72.3 °F /  22.4 °C 52.1 °F /  11.2 °C 30.08 in /  1018.5 hPa NW 2.3 mph /  3.7 km/h 2.3 mph /  3.7 km/h 49 % 0.00 in /  0 mm
15:30 72.2 °F /  22.3 °C 52.0 °F /  11.1 °C 30.08 in /  1018.5 hPa Calm     49 % 0.00 in /  0 mm
15:35 72.0 °F /  22.2 °C 52.3 °F /  11.3 °C 30.08 in /  1018.5 hPa NW 1.2 mph /  1.9 km/h 1.2 mph /  1.9 km/h 50 % 0.00 in /  0 mm
15:40 72.0 °F /  22.2 °C 52.3 °F /  11.3 °C 30.08 in /  1018.5 hPa Calm     50 % 0.00 in /  0 mm
15:45 71.9 °F /  22.2 °C 52.2 °F /  11.2 °C 30.08 in /  1018.5 hPa Calm     50 % 0.00 in /  0 mm
15:50 71.9 °F /  22.2 °C 52.2 °F /  11.2 °C 30.08 in /  1018.5 hPa NW 2.3 mph /  3.7 km/h 2.3 mph /  3.7 km/h 50 % 0.00 in /  0 mm
15:55 71.8 °F /  22.1 °C 52.7 °F /  11.5 °C 30.08 in /  1018.5 hPa NW 2.3 mph /  3.7 km/h 2.3 mph /  3.7 km/h 51 % 0.00 in /  0 mm
16:00 71.7 °F /  22.1 °C 52.6 °F /  11.4 °C 30.08 in /  1018.5 hPa NW 3.5 mph /  5.6 km/h 3.5 mph /  5.6 km/h 51 % 0.00 in /  0 mm
16:05 71.5 °F /  21.9 °C 52.9 °F /  11.6 °C 30.08 in /  1018.5 hPa WNW 2.3 mph /  3.7 km/h 2.3 mph /  3.7 km/h 52 % 0.00 in /  0 mm
16:10 71.3 °F /  21.8 °C 52.8 °F /  11.6 °C 30.08 in /  1018.5 hPa NW 1.2 mph /  1.9 km/h 1.2 mph /  1.9 km/h 52 % 0.00 in /  0 mm
16:15 71.2 °F /  21.8 °C 53.2 °F /  11.8 °C 30.08 in /  1018.5 hPa NW 3.5 mph /  5.6 km/h 3.5 mph /  5.6 km/h 53 % 0.00 in /  0 mm
16:20 71.0 °F /  21.7 °C 53.0 °F /  11.7 °C 30.08 in /  1018.5 hPa NW 1.2 mph /  1.9 km/h 1.2 mph /  1.9 km/h 53 % 0.00 in /  0 mm
16:25 71.0 °F /  21.7 °C 53.5 °F /  11.9 °C 30.08 in /  1018.5 hPa NW 1.2 mph /  1.9 km/h 1.2 mph /  1.9 km/h 54 % 0.00 in /  0 mm
16:30 70.8 °F /  21.6 °C 53.3 °F /  11.8 °C 30.08 in /  1018.5 hPa NW 1.2 mph /  1.9 km/h 1.2 mph /  1.9 km/h 54 % 0.00 in /  0 mm
16:36 70.5 °F /  21.4 °C 53.1 °F /  11.7 °C 30.08 in /  1018.5 hPa WNW 1.2 mph /  1.9 km/h 1.2 mph /  1.9 km/h 54 % 0.00 in /  0 mm
16:40 70.3 °F /  21.3 °C 53.4 °F /  11.9 °C 30.08 in /  1018.5 hPa NW 1.2 mph /  1.9 km/h   55 % 0.00 in /  0 mm
16:45 70.0 °F /  21.1 °C 53.6 °F /  12 °C 30.08 in /  1018.5 hPa WNW 1.2 mph /  1.9 km/h   56 % 0.00 in /  0 mm
16:50 69.6 °F /  20.9 °C 53.7 °F /  12.1 °C 30.08 in /  1018.5 hPa Calm     57 % 0.00 in /  0 mm
16:55 69.1 °F /  20.6 °C 53.7 °F /  12.1 °C 30.08 in /  1018.5 hPa Calm     58 % 0.00 in /  0 mm
17:00 68.6 °F /  20.3 °C 53.7 °F /  12.1 °C 30.08 in /  1018.5 hPa Calm     59 % 0.00 in /  0 mm
17:05 68.2 °F /  20.1 °C 53.3 °F /  11.8 °C 30.08 in /  1018.5 hPa Calm     59 % 0.00 in /  0 mm
17:11 67.9 °F /  19.9 °C 53.0 °F /  11.7 °C 30.08 in /  1018.5 hPa Calm     59 % 0.00 in /  0 mm
17:16 67.6 °F /  19.8 °C 53.2 °F /  11.8 °C 30.08 in /  1018.5 hPa Calm     60 % 0.00 in /  0 mm
17:21 67.1 °F /  19.5 °C 52.7 °F /  11.5 °C 30.08 in /  1018.5 hPa Calm     60 % 0.00 in /  0 mm
17:26 66.6 °F /  19.2 °C 52.7 °F /  11.5 °C 30.08 in /  1018.5 hPa Calm     61 % 0.00 in /  0 mm
17:31 66.2 °F /  19 °C 52.3 °F /  11.3 °C 30.08 in /  1018.5 hPa Calm     61 % 0.00 in /  0 mm
17:36 65.8 °F /  18.8 °C 52.4 °F /  11.3 °C 30.08 in /  1018.5 hPa Calm     62 % 0.00 in /  0 mm
17:41 65.1 °F /  18.4 °C 52.2 °F /  11.2 °C 30.08 in /  1018.5 hPa Calm     63 % 0.00 in /  0 mm
17:46 64.3 °F /  17.9 °C 52.3 °F /  11.3 °C 30.09 in /  1018.8 hPa Calm     65 % 0.00 in /  0 mm
17:51 63.7 °F /  17.6 °C 52.1 °F /  11.2 °C 30.09 in /  1018.8 hPa Calm     66 % 0.00 in /  0 mm
17:56 63.0 °F /  17.2 °C 52.3 °F /  11.3 °C 30.09 in /  1018.8 hPa Calm     68 % 0.00 in /  0 mm
18:01 62.2 °F /  16.8 °C 51.9 °F /  11.1 °C 30.09 in /  1018.8 hPa Calm     69 % 0.00 in /  0 mm
18:06 61.7 °F /  16.5 °C 51.8 °F /  11 °C 30.09 in /  1018.8 hPa Calm     70 % 0.00 in /  0 mm
18:11 61.5 °F /  16.4 °C 52.0 °F /  11.1 °C 30.09 in /  1018.8 hPa Calm     71 % 0.00 in /  0 mm
18:16 61.1 °F /  16.2 °C 51.6 °F /  10.9 °C 30.09 in /  1018.8 hPa Calm     71 % 0.00 in /  0 mm
18:21 60.6 °F /  15.9 °C 51.9 °F /  11.1 °C 30.09 in /  1018.8 hPa Calm     73 % 0.00 in /  0 mm
18:26 60.1 °F /  15.6 °C 51.8 °F /  11 °C 30.10 in /  1019.2 hPa Calm     74 % 0.00 in /  0 mm
18:31 59.5 °F /  15.3 °C 51.6 °F /  10.9 °C 30.10 in /  1019.2 hPa Calm     75 % 0.00 in /  0 mm
18:36 58.9 °F /  14.9 °C 51.3 °F /  10.7 °C 30.10 in /  1019.2 hPa Calm     76 % 0.00 in /  0 mm
18:41 58.4 °F /  14.7 °C 51.2 °F /  10.7 °C 30.10 in /  1019.2 hPa Calm     77 % 0.00 in /  0 mm
18:46 58.3 °F /  14.6 °C 50.8 °F /  10.4 °C 30.10 in /  1019.2 hPa Calm     76 % 0.00 in /  0 mm
18:51 57.3 °F /  14.1 °C 50.8 °F /  10.4 °C 30.10 in /  1019.2 hPa Calm     79 % 0.00 in /  0 mm
18:56 56.8 °F /  13.8 °C 50.7 °F /  10.4 °C 30.11 in /  1019.5 hPa Calm     80 % 0.00 in /  0 mm
19:01 56.7 °F /  13.7 °C 50.9 °F /  10.5 °C 30.11 in /  1019.5 hPa Calm     81 % 0.00 in /  0 mm
19:06 56.5 °F /  13.6 °C 50.7 °F /  10.4 °C 30.11 in /  1019.5 hPa Calm     81 % 0.00 in /  0 mm
19:11 56.3 °F /  13.5 °C 50.5 °F /  10.3 °C 30.11 in /  1019.5 hPa Calm     81 % 0.00 in /  0 mm
19:16 56.1 °F /  13.4 °C 50.7 °F /  10.4 °C 30.11 in /  1019.5 hPa Calm     82 % 0.00 in /  0 mm
19:21 56.1 °F /  13.4 °C 51.0 °F /  10.6 °C 30.11 in /  1019.5 hPa Calm     83 % 0.00 in /  0 mm
19:26 56.1 °F /  13.4 °C 50.7 °F /  10.4 °C 30.11 in /  1019.5 hPa Calm     82 % 0.00 in /  0 mm
19:31 56.0 °F /  13.3 °C 50.6 °F /  10.3 °C 30.12 in /  1019.9 hPa Calm     82 % 0.00 in /  0 mm
19:36 56.2 °F /  13.4 °C 50.8 °F /  10.4 °C 30.12 in /  1019.9 hPa Calm     82 % 0.00 in /  0 mm
19:41 56.4 °F /  13.6 °C 51.0 °F /  10.6 °C 30.12 in /  1019.9 hPa Calm     82 % 0.00 in /  0 mm
19:46 56.6 °F /  13.7 °C 50.8 °F /  10.4 °C 30.12 in /  1019.9 hPa Calm     81 % 0.00 in /  0 mm
19:51 56.3 °F /  13.5 °C 50.5 °F /  10.3 °C 30.12 in /  1019.9 hPa Calm     81 % 0.00 in /  0 mm
19:56 56.0 °F /  13.3 °C 50.6 °F /  10.3 °C 30.12 in /  1019.9 hPa Calm     82 % 0.00 in /  0 mm
20:01 56.1 °F /  13.4 °C 50.7 °F /  10.4 °C 30.12 in /  1019.9 hPa Calm     82 % 0.00 in /  0 mm
20:06 56.1 °F /  13.4 °C 50.7 °F /  10.4 °C 30.12 in /  1019.9 hPa Calm     82 % 0.00 in /  0 mm
20:11 56.1 °F /  13.4 °C 50.3 °F /  10.2 °C 30.13 in /  1020.2 hPa Calm     81 % 0.00 in /  0 mm
20:16 55.9 °F /  13.3 °C 50.5 °F /  10.3 °C 30.13 in /  1020.2 hPa Calm     82 % 0.00 in /  0 mm
20:21 55.7 °F /  13.2 °C 50.3 °F /  10.2 °C 30.13 in /  1020.2 hPa Calm     82 % 0.00 in /  0 mm
20:26 55.5 °F /  13.1 °C 50.1 °F /  10.1 °C 30.13 in /  1020.2 hPa Calm     82 % 0.00 in /  0 mm
20:31 55.2 °F /  12.9 °C 50.1 °F /  10.1 °C 30.13 in /  1020.2 hPa Calm     83 % 0.00 in /  0 mm
20:36 55.0 °F /  12.8 °C 49.9 °F /  9.9 °C 30.13 in /  1020.2 hPa Calm     83 % 0.00 in /  0 mm
20:41 54.8 °F /  12.7 °C 49.7 °F /  9.8 °C 30.13 in /  1020.2 hPa Calm     83 % 0.00 in /  0 mm
20:46 54.7 °F /  12.6 °C 50.0 °F /  10 °C 30.13 in /  1020.2 hPa Calm     84 % 0.00 in /  0 mm
20:51 54.5 °F /  12.5 °C 49.4 °F /  9.7 °C 30.13 in /  1020.2 hPa Calm     83 % 0.00 in /  0 mm
20:56 54.2 °F /  12.3 °C 49.5 °F /  9.7 °C 30.13 in /  1020.2 hPa Calm     84 % 0.00 in /  0 mm
21:01 54.0 °F /  12.2 °C 49.6 °F /  9.8 °C 30.13 in /  1020.2 hPa Calm     85 % 0.00 in /  0 mm
21:06 54.1 °F /  12.3 °C 49.7 °F /  9.8 °C 30.13 in /  1020.2 hPa Calm     85 % 0.00 in /  0 mm
21:11 53.8 °F /  12.1 °C 49.1 °F /  9.5 °C 30.14 in /  1020.5 hPa Calm     84 % 0.00 in /  0 mm
21:16 53.8 °F /  12.1 °C 49.7 °F /  9.8 °C 30.13 in /  1020.2 hPa Calm     86 % 0.00 in /  0 mm
21:21 53.9 °F /  12.2 °C 49.5 °F /  9.7 °C 30.14 in /  1020.5 hPa Calm     85 % 0.00 in /  0 mm
21:26 53.6 °F /  12 °C 49.2 °F /  9.6 °C 30.14 in /  1020.5 hPa Calm     85 % 0.00 in /  0 mm
21:31 53.3 °F /  11.8 °C 48.9 °F /  9.4 °C 30.14 in /  1020.5 hPa Calm     85 % 0.00 in /  0 mm
21:36 53.0 °F /  11.7 °C 48.9 °F /  9.4 °C 30.14 in /  1020.5 hPa Calm     86 % 0.00 in /  0 mm
21:41 52.8 °F /  11.6 °C 48.7 °F /  9.3 °C 30.14 in /  1020.5 hPa Calm     86 % 0.00 in /  0 mm
21:46 52.6 °F /  11.4 °C 48.5 °F /  9.2 °C 30.14 in /  1020.5 hPa Calm     86 % 0.00 in /  0 mm
21:51 52.3 °F /  11.3 °C 48.5 °F /  9.2 °C 30.14 in /  1020.5 hPa Calm     87 % 0.00 in /  0 mm
21:57 52.0 °F /  11.1 °C 47.9 °F /  8.8 °C 30.14 in /  1020.5 hPa Calm     86 % 0.00 in /  0 mm
22:02 51.8 °F /  11 °C 48.1 °F /  8.9 °C 30.14 in /  1020.5 hPa Calm     87 % 0.00 in /  0 mm
22:07 51.7 °F /  10.9 °C 48.3 °F /  9.1 °C 30.14 in /  1020.5 hPa Calm     88 % 0.00 in /  0 mm
22:12 51.7 °F /  10.9 °C 48.3 °F /  9.1 °C 30.14 in /  1020.5 hPa Calm     88 % 0.00 in /  0 mm
22:17 51.4 °F /  10.8 °C 48.0 °F /  8.9 °C 30.14 in /  1020.5 hPa Calm     88 % 0.00 in /  0 mm
22:22 51.2 °F /  10.7 °C 47.5 °F /  8.6 °C 30.14 in /  1020.5 hPa Calm     87 % 0.00 in /  0 mm
22:27 50.8 °F /  10.4 °C 47.1 °F /  8.4 °C 30.14 in /  1020.5 hPa Calm     87 % 0.00 in /  0 mm
22:32 50.5 °F /  10.3 °C 47.1 °F /  8.4 °C 30.14 in /  1020.5 hPa Calm     88 % 0.00 in /  0 mm
22:37 50.4 °F /  10.2 °C 47.0 °F /  8.3 °C 30.14 in /  1020.5 hPa Calm     88 % 0.00 in /  0 mm
22:42 50.4 °F /  10.2 °C 47.0 °F /  8.3 °C 30.14 in /  1020.5 hPa Calm     88 % 0.00 in /  0 mm
22:47 50.5 °F /  10.3 °C 47.7 °F /  8.7 °C 30.14 in /  1020.5 hPa Calm     90 % 0.00 in /  0 mm
22:52 50.5 °F /  10.3 °C 47.4 °F /  8.6 °C 30.14 in /  1020.5 hPa Calm     89 % 0.00 in /  0 mm
22:57 50.5 °F /  10.3 °C 47.7 °F /  8.7 °C 30.14 in /  1020.5 hPa Calm     90 % 0.00 in /  0 mm
23:02 50.5 °F /  10.3 °C 47.4 °F /  8.6 °C 30.14 in /  1020.5 hPa Calm     89 % 0.00 in /  0 mm
23:07 50.3 °F /  10.2 °C 47.2 °F /  8.4 °C 30.14 in /  1020.5 hPa Calm     89 % 0.00 in /  0 mm
23:12 50.2 °F /  10.1 °C 47.1 °F /  8.4 °C 30.14 in /  1020.5 hPa Calm     89 % 0.00 in /  0 mm
23:17 50.0 °F /  10 °C 46.6 °F /  8.1 °C 30.14 in /  1020.5 hPa Calm     88 % 0.00 in /  0 mm
23:22 49.5 °F /  9.7 °C 45.8 °F /  7.7 °C 30.14 in /  1020.5 hPa Calm     87 % 0.00 in /  0 mm
23:27 48.9 °F /  9.4 °C 45.2 °F /  7.3 °C 30.13 in /  1020.2 hPa Calm     87 % 0.00 in /  0 mm
23:32 48.5 °F /  9.2 °C 45.1 °F /  7.3 °C 30.13 in /  1020.2 hPa Calm     88 % 0.00 in /  0 mm
23:37 48.1 °F /  8.9 °C 45.0 °F /  7.2 °C 30.13 in /  1020.2 hPa Calm     89 % 0.00 in /  0 mm
23:42 48.0 °F /  8.9 °C 45.2 °F /  7.3 °C 30.13 in /  1020.2 hPa Calm     90 % 0.00 in /  0 mm
23:47 47.8 °F /  8.8 °C 45.0 °F /  7.2 °C 30.13 in /  1020.2 hPa Calm     90 % 0.00 in /  0 mm
23:52 47.6 °F /  8.7 °C 44.8 °F /  7.1 °C 30.13 in /  1020.2 hPa Calm     90 % 0.00 in /  0 mm
23:57 47.3 °F /  8.5 °C 44.5 °F /  6.9 °C 30.13 in /  1020.2 hPa Calm     90 % 0.00 in /  0 mm
Park Place, Exeter, Tulare County, California, USA
Compliments of Weather Underground - 2.75 mb